Aérodrome :
LOGIN :

S'inscrire | Disclaimer

   EN    FR    IT 

 










Légende :    VFR   VFR Marginal   IFR   IFR Intensif   IFR Très Intensif
Visi : 
Plafond : 
>= 8 km
>= 3000ft
5 à 8 km
1000 à 3000 ft
1500m à 5 km
500 à 1000 ft
800 à 1500m
200 à 500 ft
< 800m
< 200 ft
Symboles :   Orages  Brouillard  Fortes neiges  Fortes précipitations  Vent > 20 kt
SIGMETs :   Divers  Orages  Givrage  Turbulence  Onde Orograph.  Cendres Volcan.






- Altitude de l'aérodrome : 74 ft
- Code IATA : EIN


EHEH - Eindhoven

DERNIER METAR :
  • 301125Z AUTO 29014KT 230V360 9999 SCT028 BKN032 OVC038 08/02 Q1019 BLU TEMPO 30018G30KT

METARs EXPIRÉS :
  • 301055Z AUTO 29015G26KT 250V360 9999 FEW029 BKN033 BKN038 08/02 Q1019 BLU TEMPO 30018G30KT
  • 301025Z AUTO 28013G24KT 230V330 9999 SCT026 BKN029 OVC032 08/03 Q1019 BLU TEMPO 30015G27KT SCT025
  • 300955Z AUTO 27011KT 230V330 9999 FEW026 SCT030 08/03 Q1018 BLU BECMG 28015G27KT SCT025
  • 300925Z AUTO 27011KT 240V330 9999 NCD 07/03 Q1018 BLU BECMG 28015G27KT SCT025
  • 300855Z AUTO 27009KT 220V310 9999 NCD 07/03 Q1018 BLU BECMG 28015G27KT SCT025

TAF TAF EHEH
Valide du 30 à 12h jusqu'au 31 à 18h UTC


301112Z 3012/3118 29015G25KT 9999 SCT025 BKN030
PROB30
TEMPO 3012/3017 30018G30KT SHRA FEW010 SCT018CB
BECMG 3016/3018 28008KT
BECMG 3106/3109 24010KT
BECMG 3110/3112 26013G25KT BKN012 OVC015
TEMPO 3112/3118 3500 RADZ -DZ BKN005 OVC008



MET'MAP, la Météo Aéronautique d'un coup d'oeil ! - Copyright ORBIFLY Décembre 2007 - Disclaimer

ORBIFLY MET'MAP TEAM :

Programmation & Développement : Alexandra Zaïnal
Sur une idée originale de : Baudouin d'Aumeries
Soutien technique & logistique : Manuel Goepfert
Assistance : Marc-Olivier Méhu




SOURCES & CREDITS :

   NOAA